Time;durP1;ratioP1;P1;durP2;ratioP2;P2;SDS_P1;SDS_P2;PMS_P1;PMS_P2;Temp;Humidity;BMP_temperature;BMP_pressure;BME280_temperature;BME280_humidity;BME280_pressure;Samples;Min_cycle;Max_cycle;Signal;HPM_P1;HPM_P2
2022/03/25 00:07:29;;;;;;;16.67;12.50;;;21.80;37.80;;;;;;5034718;28;20499;-84
2022/03/25 00:20:17;;;;;;;16.87;12.77;;;21.70;37.80;;;;;;5036092;28;20487;-82
2022/03/25 00:26:38;;;;;;;15.17;12.10;;;21.70;37.90;;;;;;5049495;28;20467;-82
2022/03/25 00:29:51;;;;;;;15.17;10.90;;;21.70;37.90;;;;;;5045143;28;20462;-82
2022/03/25 00:45:05;;;;;;;17.00;12.30;;;21.40;37.90;;;;;;5018139;28;20498;-84
2022/03/25 00:48:08;;;;;;;16.30;12.67;;;21.40;38.00;;;;;;5020267;28;20460;-83
2022/03/25 00:51:22;;;;;;;16.47;12.43;;;21.40;38.00;;;;;;5017848;28;20444;-84
2022/03/25 00:54:20;;;;;;;16.63;12.93;;;21.40;38.10;;;;;;5017481;28;20444;-84
2022/03/25 01:00:27;;;;;;;14.83;11.10;;;21.20;38.20;;;;;;5024533;28;20447;-84
2022/03/25 01:03:42;;;;;;;17.20;12.03;;;21.30;38.30;;;;;;5018603;28;20475;-84
2022/03/25 01:06:53;;;;;;;16.83;12.00;;;21.20;38.20;;;;;;5016076;28;20464;-83
2022/03/25 01:09:47;;;;;;;14.40;11.60;;;21.20;38.30;;;;;;5021228;28;20448;-83
2022/03/25 01:13:16;;;;;;;16.90;12.30;;;21.10;38.20;;;;;;5018314;28;20476;-83
2022/03/25 01:19:12;;;;;;;18.97;12.93;;;21.10;38.30;;;;;;4960258;28;20453;-84
2022/03/25 01:22:18;;;;;;;16.00;12.10;;;21.10;38.30;;;;;;4959623;28;20457;-83
2022/03/25 01:25:30;;;;;;;14.70;11.77;;;21.10;38.40;;;;;;4960580;29;20447;-84
2022/03/25 01:35:27;;;;;;;16.30;12.13;;;20.90;38.40;;;;;;5026322;28;20439;-84
2022/03/25 01:45:04;;;;;;;17.03;12.57;;;20.80;38.50;;;;;;5016870;28;20452;-84
2022/03/25 01:47:56;;;;;;;20.33;13.90;;;20.70;38.50;;;;;;5019927;28;20516;-84
2022/03/25 01:54:12;;;;;;;16.80;12.67;;;20.70;38.50;;;;;;5020650;28;20490;-84
2022/03/25 01:57:26;;;;;;;15.30;12.30;;;20.70;38.60;;;;;;5019930;28;20472;-84
2022/03/25 02:00:44;;;;;;;15.27;11.37;;;20.70;38.60;;;;;;5020690;28;20447;-84
2022/03/25 02:10:42;;;;;;;18.00;12.73;;;20.50;38.60;;;;;;5012783;28;20455;-84
2022/03/25 02:37:53;;;;;;;19.30;13.40;;;20.20;39.00;;;;;;4834092;29;20480;-84
2022/03/25 02:43:31;;;;;;;20.70;13.17;;;20.10;39.10;;;;;;4858422;29;20458;-83
2022/03/25 02:46:14;;;;;;;21.60;13.33;;;20.00;39.00;;;;;;4860977;29;20489;-83
2022/03/25 02:49:09;;;;;;;19.73;13.70;;;20.10;39.10;;;;;;4864399;29;20471;-84
2022/03/25 02:52:13;;;;;;;17.90;13.70;;;20.00;39.00;;;;;;4865449;29;20444;-84
2022/03/25 02:54:58;;;;;;;21.60;13.90;;;20.00;39.10;;;;;;4860106;29;20443;-83
2022/03/25 02:57:47;;;;;;;17.33;13.03;;;20.00;39.10;;;;;;4865610;29;20467;-83
2022/03/25 03:00:34;;;;;;;20.27;14.40;;;20.00;39.20;;;;;;4865809;29;20451;-83
2022/03/25 03:03:33;;;;;;;23.77;15.70;;;20.00;39.10;;;;;;4951588;28;20441;-83
2022/03/25 03:06:09;;;;;;;18.40;14.10;;;19.90;39.00;;;;;;5024464;28;20469;-83
2022/03/25 03:20:12;;;;;;;19.80;14.47;;;19.80;39.30;;;;;;4809481;29;20454;-83
2022/03/25 03:23:39;;;;;;;20.13;14.23;;;19.80;39.40;;;;;;4868742;29;20458;-83
2022/03/25 03:54:41;;;;;;;19.87;15.13;;;19.40;39.50;;;;;;1252567;22;20805;-82
2022/03/25 03:57:23;;;;;;;21.33;15.13;;;19.40;39.50;;;;;;5015005;28;20484;-83
2022/03/25 04:00:28;;;;;;;22.27;15.70;;;19.40;39.50;;;;;;5018693;28;20451;-83
2022/03/25 04:03:12;;;;;;;22.93;15.23;;;19.30;39.60;;;;;;5021298;28;20479;-83
2022/03/25 04:06:09;;;;;;;19.53;14.07;;;19.30;39.50;;;;;;5024724;28;20436;-83
2022/03/25 04:12:55;;;;;;;23.97;16.20;;;19.20;39.60;;;;;;5017600;28;20499;-83
2022/03/25 04:16:15;;;;;;;22.40;15.20;;;19.20;39.70;;;;;;5017360;28;20447;-82
2022/03/25 04:22:19;;;;;;;21.87;15.10;;;19.10;39.70;;;;;;4997206;28;20988;-82
2022/03/25 04:25:17;;;;;;;24.33;16.40;;;19.10;39.60;;;;;;4996987;28;20472;-83
2022/03/25 04:31:07;;;;;;;19.73;14.80;;;19.10;39.70;;;;;;4998342;28;20453;-84
2022/03/25 04:34:14;;;;;;;24.70;16.70;;;19.00;39.60;;;;;;5001167;28;20510;-83
2022/03/25 04:42:51;;;;;;;23.50;15.37;;;19.00;39.90;;;;;;5017874;28;20498;-82
2022/03/25 04:45:45;;;;;;;21.20;15.10;;;18.90;39.90;;;;;;5020657;28;20438;-84
2022/03/25 04:48:36;;;;;;;25.30;17.40;;;18.80;39.80;;;;;;5021911;28;20433;-83
2022/03/25 04:51:18;;;;;;;20.23;14.93;;;18.80;39.80;;;;;;5016459;28;20460;-83
2022/03/25 04:54:10;;;;;;;23.13;16.23;;;18.80;39.80;;;;;;5020995;28;20587;-83
2022/03/25 04:56:51;;;;;;;23.10;15.90;;;18.80;39.90;;;;;;5021451;28;20479;-83
2022/03/25 04:59:35;;;;;;;20.20;15.20;;;18.80;40.00;;;;;;5021887;28;20443;-82
2022/03/25 05:02:20;;;;;;;19.90;14.77;;;18.80;39.90;;;;;;5017275;28;20468;-83
2022/03/25 05:05:07;;;;;;;23.30;16.37;;;18.80;40.00;;;;;;5021811;28;20448;-83
2022/03/25 05:07:54;;;;;;;24.53;15.50;;;18.70;39.90;;;;;;5021306;28;20525;-82
2022/03/25 05:10:50;;;;;;;22.63;14.60;;;18.70;39.90;;;;;;5014499;28;20463;-82
2022/03/25 05:13:35;;;;;;;22.37;15.50;;;18.60;40.00;;;;;;5002341;28;20495;-82
2022/03/25 05:16:42;;;;;;;22.60;15.70;;;18.60;39.90;;;;;;5006185;28;20496;-82
2022/03/25 05:19:42;;;;;;;22.77;16.20;;;18.60;40.00;;;;;;5005224;28;20448;-83
2022/03/25 05:25:22;;;;;;;24.47;16.07;;;18.60;40.20;;;;;;5003238;28;20445;-83
2022/03/25 05:28:13;;;;;;;22.10;15.50;;;18.50;40.10;;;;;;5020286;28;20492;-83
2022/03/25 05:31:05;;;;;;;22.70;15.60;;;18.50;40.20;;;;;;5024006;28;20440;-84
2022/03/25 05:33:49;;;;;;;23.47;16.10;;;18.50;40.20;;;;;;5021789;28;20476;-83
2022/03/25 05:36:31;;;;;;;23.17;15.20;;;18.50;40.30;;;;;;5021613;28;20526;-83
2022/03/25 05:39:05;;;;;;;21.73;15.07;;;18.40;40.10;;;;;;5021998;28;20458;-83
2022/03/25 05:41:42;;;;;;;21.20;15.33;;;18.40;40.20;;;;;;5022729;28;20443;-84
2022/03/25 05:44:21;;;;;;;22.07;16.10;;;18.40;40.20;;;;;;5026989;28;20454;-83
2022/03/25 05:46:55;;;;;;;21.10;15.10;;;18.40;40.20;;;;;;5031762;28;20504;-84
2022/03/25 05:49:30;;;;;;;23.10;17.00;;;18.40;40.40;;;;;;5033669;28;20472;-83
2022/03/25 05:52:05;;;;;;;22.53;16.50;;;18.40;40.30;;;;;;5033685;28;20479;-82
2022/03/25 05:54:33;;;;;;;23.23;16.03;;;18.40;40.30;;;;;;5027420;28;20471;-83
2022/03/25 05:57:02;;;;;;;22.90;16.40;;;18.30;40.30;;;;;;5022077;28;20479;-84
2022/03/25 05:59:34;;;;;;;23.23;15.80;;;18.30;40.30;;;;;;5021676;28;20452;-83
2022/03/25 06:02:08;;;;;;;24.27;16.50;;;18.30;40.30;;;;;;5012852;28;20476;-83
2022/03/25 06:04:39;;;;;;;23.53;16.10;;;18.40;40.40;;;;;;5021958;28;20440;-83
2022/03/25 06:07:15;;;;;;;23.30;15.90;;;18.30;40.30;;;;;;5024679;28;20472;-82
2022/03/25 06:09:45;;;;;;;22.50;15.40;;;18.40;40.30;;;;;;5024629;28;20454;-83
2022/03/25 06:12:14;;;;;;;24.27;16.70;;;18.40;40.20;;;;;;5023880;28;20445;-82
2022/03/25 06:14:54;;;;;;;23.40;16.73;;;18.40;40.30;;;;;;5021373;28;20476;-84
2022/03/25 06:17:26;;;;;;;21.80;15.77;;;18.40;40.30;;;;;;5020589;28;20472;-84
2022/03/25 06:19:58;;;;;;;25.20;17.30;;;18.40;40.40;;;;;;5018016;28;21048;-82
2022/03/25 06:22:31;;;;;;;23.37;16.37;;;18.40;40.40;;;;;;5020337;28;20483;-83
2022/03/25 06:25:01;;;;;;;22.20;16.00;;;18.40;40.40;;;;;;5022246;28;20448;-83
2022/03/25 06:27:32;;;;;;;22.50;15.87;;;18.40;40.30;;;;;;5020209;28;20468;-83
2022/03/25 06:30:04;;;;;;;22.23;15.90;;;18.30;40.20;;;;;;5019259;28;20452;-83
2022/03/25 06:32:37;;;;;;;21.43;15.97;;;18.40;40.20;;;;;;5018278;28;20627;-83
2022/03/25 06:35:10;;;;;;;23.07;16.20;;;18.40;40.20;;;;;;5017202;28;20542;-83
2022/03/25 06:37:48;;;;;;;23.13;15.87;;;18.40;40.10;;;;;;5018892;28;20494;-83
2022/03/25 06:40:36;;;;;;;23.07;16.20;;;18.50;40.10;;;;;;5019171;28;20427;-83
2022/03/25 06:43:55;;;;;;;21.30;15.80;;;18.50;40.20;;;;;;5020532;28;20455;-83
2022/03/25 06:54:14;;;;;;;17.77;13.97;;;18.80;39.80;;;;;;5020352;28;20444;-83
2022/03/25 06:58:14;;;;;;;;;;;;;;;;;;;;;
2022/03/25 07:04:54;;;;;;;19.93;14.80;;;19.10;39.80;;;;;;5019519;28;20442;-83
2022/03/25 07:40:44;;;;;;;13.80;11.60;;;20.00;39.00;;;;;;4786410;29;20549;-83
2022/03/25 07:47:13;;;;;;;12.63;10.90;;;20.00;39.20;;;;;;4882347;29;20479;-84
2022/03/25 07:50:04;;;;;;;12.83;10.70;;;20.10;39.20;;;;;;4884430;29;20481;-84
2022/03/25 07:53:13;;;;;;;12.90;10.83;;;20.10;39.00;;;;;;4865158;29;20447;-84
2022/03/25 07:56:58;;;;;;;11.30;10.10;;;20.20;39.30;;;;;;4865203;29;20475;-83
2022/03/25 08:14:24;;;;;;;12.30;10.47;;;19.80;40.50;;;;;;4828989;29;20480;-83
2022/03/25 08:28:17;;;;;;;10.63;9.13;;;19.90;40.80;;;;;;5095241;27;20564;-82
2022/03/25 08:34:41;;;;;;;10.77;9.57;;;20.70;40.60;;;;;;5095850;28;20455;-82
2022/03/25 08:37:13;;;;;;;9.50;8.60;;;21.00;40.70;;;;;;5097793;28;20499;-83
2022/03/25 08:40:02;;;;;;;;;;;;;;;;;;;;;
2022/03/25 08:42:39;;;;;;;10.90;9.10;;;21.30;40.50;;;;;;5095037;28;20464;-83
2022/03/25 08:45:15;;;;;;;9.97;8.97;;;21.50;40.60;;;;;;5093897;28;20471;-82
2022/03/25 08:47:56;;;;;;;9.60;8.60;;;21.80;40.50;;;;;;5093894;28;20505;-83
2022/03/25 08:50:40;;;;;;;9.23;8.33;;;21.90;40.30;;;;;;5092526;28;20452;-83
2022/03/25 08:56:49;;;;;;;9.57;8.67;;;22.50;40.00;;;;;;5077078;28;20472;-83
2022/03/25 09:02:55;;;;;;;9.00;8.10;;;22.90;39.70;;;;;;5070755;28;20448;-83
2022/03/25 09:05:48;;;;;;;8.83;8.03;;;23.30;39.50;;;;;;5072501;28;20413;-83
2022/03/25 09:08:51;;;;;;;9.37;8.40;;;23.50;39.40;;;;;;5069553;28;20528;-83
2022/03/25 09:11:40;;;;;;;10.13;7.70;;;23.60;39.40;;;;;;5074295;28;20416;-83
2022/03/25 09:14:29;;;;;;;8.90;8.10;;;23.90;39.10;;;;;;5073151;28;20445;-83
2022/03/25 09:17:20;;;;;;;;;;;;;;;;;;;;;
2022/03/25 09:20:52;;;;;;;8.67;7.70;;;24.20;39.10;;;;;;5072879;28;20442;-83
2022/03/25 09:28:23;;;;;;;9.10;8.30;;;24.70;38.80;;;;;;5047154;28;20452;-82
2022/03/25 09:31:17;;;;;;;8.40;7.70;;;25.00;38.40;;;;;;4979210;28;20460;-82
2022/03/25 10:10:35;;;;;;;7.90;7.30;;;28.30;35.30;;;;;;4978135;28;20447;-82
2022/03/25 10:13:05;;;;;;;7.57;7.00;;;28.60;35.20;;;;;;4989120;28;20521;-83
2022/03/25 10:22:48;;;;;;;7.57;6.97;;;29.30;34.70;;;;;;4974075;28;20449;-83
2022/03/25 10:26:13;;;;;;;7.47;6.90;;;29.60;34.20;;;;;;5031853;28;20436;-83
2022/03/25 10:28:55;;;;;;;7.03;6.53;;;29.90;34.00;;;;;;4992137;28;20462;-83
2022/03/25 10:31:40;;;;;;;7.57;6.87;;;30.10;33.70;;;;;;4996655;28;20451;-83
2022/03/25 10:34:19;;;;;;;7.23;6.63;;;30.30;33.60;;;;;;5060496;28;20451;-84
2022/03/25 10:39:53;;;;;;;12.53;6.70;;;30.60;33.40;;;;;;5074277;28;20460;-84
2022/03/25 10:42:46;;;;;;;8.57;6.40;;;30.90;33.10;;;;;;5076566;28;20468;-83
2022/03/25 10:45:36;;;;;;;6.47;6.03;;;31.20;32.90;;;;;;5076962;28;20442;-84
2022/03/25 10:48:28;;;;;;;6.97;6.37;;;31.40;32.60;;;;;;5076979;28;20418;-83
2022/03/25 10:51:46;;;;;;;6.97;6.30;;;31.60;32.30;;;;;;5074197;28;20447;-85
2022/03/25 10:54:53;;;;;;;7.50;6.50;;;31.80;32.20;;;;;;4974335;28;20499;-85
2022/03/25 11:27:54;;;;;;;5.83;5.43;;;35.40;28.90;;;;;;4929442;29;20488;-84
2022/03/25 11:30:59;;;;;;;5.83;4.97;;;36.10;28.20;;;;;;4950387;28;20582;-85
2022/03/25 11:53:12;;;;;;;4.27;4.07;;;41.90;23.40;;;;;;4873527;29;20453;-85
2022/03/25 12:10:18;;;;;;;3.50;3.40;;;44.90;21.00;;;;;;4936248;29;20455;-84
2022/03/25 12:13:41;;;;;;;3.05;2.97;;;45.60;20.40;;;;;;4911936;29;20447;-85
2022/03/25 12:20:58;;;;;;;3.35;3.15;;;46.50;19.80;;;;;;5017748;28;20482;-84
2022/03/25 12:31:29;;;;;;;2.80;2.70;;;47.30;19.10;;;;;;4990215;28;20298;-84
2022/03/25 12:35:16;;;;;;;2.78;2.70;;;47.40;18.90;;;;;;4993576;28;20214;-84
2022/03/25 12:38:37;;;;;;;2.75;2.75;;;47.60;18.80;;;;;;5011721;28;20209;-83
2022/03/25 12:42:24;;;;;;;2.90;2.70;;;47.80;18.70;;;;;;4925113;29;20209;-84
2022/03/25 12:45:57;;;;;;;2.72;2.65;;;48.20;18.70;;;;;;4897949;29;20237;-84
2022/03/25 12:49:57;;;;;;;3.90;2.50;;;48.40;18.40;;;;;;4837552;29;20264;-85
2022/03/25 13:00:40;;;;;;;2.40;2.38;;;48.80;17.90;;;;;;4793684;29;20244;-84
2022/03/25 13:10:39;;;;;;;2.50;2.50;;;48.80;18.00;;;;;;4843259;29;20688;-83
2022/03/25 13:16:16;;;;;;;2.78;2.70;;;48.80;17.90;;;;;;4974122;28;20282;-86
2022/03/25 13:18:44;;;;;;;2.85;2.72;;;48.80;17.80;;;;;;5056353;28;20189;-85
2022/03/25 13:21:16;;;;;;;2.95;2.70;;;48.80;17.70;;;;;;5056165;28;20204;-85
2022/03/25 13:23:44;;;;;;;7.45;3.17;;;48.80;17.90;;;;;;5058924;28;20205;-81
2022/03/25 13:26:14;;;;;;;8.98;3.88;;;46.10;15.60;;;;;;5069435;28;20270;-82
2022/03/25 13:28:44;;;;;;;11.83;4.73;;;42.20;18.40;;;;;;5074648;28;20212;-82
2022/03/25 13:31:12;;;;;;;11.53;6.80;;;40.10;20.30;;;;;;5065034;28;20454;-81
2022/03/25 13:33:47;;;;;;;11.30;7.37;;;39.00;17.50;;;;;;5058447;28;20450;-82
2022/03/25 13:36:17;;;;;;;17.03;8.40;;;37.70;16.10;;;;;;5064542;28;20465;-80
2022/03/25 13:38:47;;;;;;;15.83;7.03;;;37.10;17.20;;;;;;5064899;28;20529;-81
2022/03/25 13:41:17;;;;;;;12.07;8.20;;;37.70;18.20;;;;;;5065922;28;20442;-80
2022/03/25 13:43:46;;;;;;;18.50;9.60;;;37.20;16.50;;;;;;5068901;28;20438;-81
2022/03/25 13:46:20;;;;;;;20.57;11.30;;;36.40;17.20;;;;;;5071868;28;20498;-80
2022/03/25 13:48:50;;;;;;;19.97;13.07;;;34.70;18.50;;;;;;5075501;28;20454;-80
2022/03/25 13:51:19;;;;;;;23.10;12.67;;;33.10;20.10;;;;;;5072838;28;20438;-80
2022/03/25 13:53:47;;;;;;;19.40;12.70;;;32.90;19.50;;;;;;5068458;28;20454;-80
2022/03/25 13:56:19;;;;;;;24.07;12.90;;;32.10;20.50;;;;;;5065835;28;20462;-79
2022/03/25 13:58:49;;;;;;;19.90;11.80;;;31.80;20.80;;;;;;5066169;28;20414;-80
2022/03/25 14:01:32;;;;;;;23.90;13.10;;;31.90;20.70;;;;;;5066207;28;20434;-80
2022/03/25 14:04:05;;;;;;;20.40;11.97;;;32.10;19.90;;;;;;5060848;28;20480;-81
2022/03/25 14:06:35;;;;;;;29.67;17.77;;;31.70;21.10;;;;;;5062127;28;20458;-82
2022/03/25 14:09:30;;;;;;;23.33;13.40;;;31.70;20.50;;;;;;5060955;28;20459;-82
2022/03/25 14:12:01;;;;;;;25.97;13.33;;;32.30;20.50;;;;;;5061682;28;20450;-83
2022/03/25 14:14:31;;;;;;;19.27;13.00;;;31.80;20.80;;;;;;5062035;28;20458;-83
2022/03/25 14:16:59;;;;;;;25.87;12.37;;;32.70;19.50;;;;;;5063216;28;20497;-84
2022/03/25 14:19:27;;;;;;;24.50;13.00;;;32.60;19.60;;;;;;5060812;28;20470;-81
2022/03/25 14:21:55;;;;;;;16.20;11.93;;;32.50;19.10;;;;;;5060425;28;20482;-82
2022/03/25 14:24:34;;;;;;;24.63;13.30;;;31.80;19.00;;;;;;5062307;28;20512;-83
2022/03/25 14:27:05;;;;;;;20.37;13.30;;;31.50;19.40;;;;;;5061711;28;20454;-83
2022/03/25 14:29:34;;;;;;;25.30;12.80;;;30.90;20.50;;;;;;5059932;28;20471;-83
2022/03/25 14:32:02;;;;;;;21.07;12.50;;;31.20;20.00;;;;;;5058830;28;20469;-82
2022/03/25 14:34:30;;;;;;;26.07;13.97;;;31.00;19.80;;;;;;5059332;28;20443;-86
2022/03/25 14:36:58;;;;;;;32.17;15.10;;;30.80;19.80;;;;;;5059351;28;20470;-82
2022/03/25 14:39:27;;;;;;;27.67;14.70;;;30.30;21.20;;;;;;5059707;28;20557;-86
2022/03/25 14:42:00;;;;;;;18.13;12.80;;;31.40;19.60;;;;;;5058804;28;20458;-83
2022/03/25 14:44:29;;;;;;;25.07;16.03;;;31.70;19.50;;;;;;5060476;28;20470;-82
2022/03/25 14:46:58;;;;;;;27.50;15.80;;;31.40;18.70;;;;;;5057643;28;20466;-83
2022/03/25 14:49:28;;;;;;;30.87;16.43;;;31.10;19.00;;;;;;5060976;28;20473;-79
2022/03/25 14:51:56;;;;;;;25.33;14.33;;;31.60;18.90;;;;;;5063846;28;20446;-81
2022/03/25 14:54:25;;;;;;;26.87;14.70;;;31.70;18.30;;;;;;5070148;28;20453;-82
2022/03/25 14:56:53;;;;;;;28.77;14.17;;;30.60;19.60;;;;;;5067989;28;20459;-80
2022/03/25 14:59:21;;;;;;;19.80;13.50;;;30.70;19.60;;;;;;5066449;28;20430;-78
2022/03/25 15:01:52;;;;;;;40.30;22.33;;;30.10;19.50;;;;;;5060312;28;21018;-81
2022/03/25 15:04:23;;;;;;;20.43;10.37;;;29.70;19.40;;;;;;5061144;28;20469;-78
2022/03/25 15:06:51;;;;;;;16.93;9.20;;;29.80;21.60;;;;;;5065711;28;20465;-80
2022/03/25 15:09:19;;;;;;;16.53;9.17;;;30.10;22.40;;;;;;5070325;28;20463;-81
2022/03/25 15:11:47;;;;;;;11.83;8.50;;;30.40;22.80;;;;;;5065737;28;20447;-81
2022/03/25 15:14:15;;;;;;;15.73;8.73;;;30.70;22.70;;;;;;5063446;28;20439;-82
2022/03/25 15:16:45;;;;;;;14.23;7.37;;;31.00;22.90;;;;;;5060217;28;20489;-81
2022/03/25 15:19:15;;;;;;;14.53;7.57;;;31.60;22.70;;;;;;5040406;28;20490;-81
2022/03/25 15:21:44;;;;;;;10.70;7.20;;;32.10;22.70;;;;;;5053011;28;20443;-81
2022/03/25 15:24:12;;;;;;;8.37;6.30;;;32.20;22.50;;;;;;5060711;28;20457;-80
2022/03/25 15:26:41;;;;;;;10.63;7.00;;;32.30;22.70;;;;;;5059152;28;20473;-82
2022/03/25 15:29:09;;;;;;;8.80;6.03;;;32.40;22.80;;;;;;5057096;28;20479;-82
2022/03/25 15:34:28;;;;;;;6.63;5.40;;;32.40;22.70;;;;;;5054804;28;20477;-82
2022/03/25 15:37:16;;;;;;;10.80;5.93;;;32.30;22.70;;;;;;5058937;28;20547;-84
2022/03/25 15:42:32;;;;;;;22.30;5.83;;;29.90;20.10;;;;;;5053115;28;20443;-85
2022/03/25 15:45:00;;;;;;;13.97;6.83;;;28.20;22.10;;;;;;5053028;28;20466;-85
2022/03/25 15:47:29;;;;;;;20.63;5.90;;;27.40;23.20;;;;;;5053503;28;20445;-85
2022/03/25 15:49:58;;;;;;;12.53;5.70;;;26.60;24.00;;;;;;5053358;28;20438;-85
2022/03/25 15:52:27;;;;;;;14.00;5.90;;;26.30;25.70;;;;;;5053268;28;20446;-85
2022/03/25 15:54:57;;;;;;;11.43;5.77;;;25.80;24.90;;;;;;5053508;28;20506;-85
2022/03/25 15:57:26;;;;;;;21.40;7.10;;;25.60;26.20;;;;;;5052752;28;20445;-84
2022/03/25 15:59:54;;;;;;;15.93;7.90;;;25.10;25.70;;;;;;5053167;28;20445;-84
2022/03/25 16:02:22;;;;;;;25.13;9.20;;;24.90;27.20;;;;;;5053218;28;20481;-85
2022/03/25 16:04:51;;;;;;;13.20;6.17;;;24.40;27.10;;;;;;5052924;28;20425;-84
2022/03/25 16:07:20;;;;;;;22.80;7.03;;;24.30;27.60;;;;;;5053180;28;20441;-85
2022/03/25 16:09:48;;;;;;;18.20;6.90;;;24.10;28.20;;;;;;5053044;28;20425;-85
2022/03/25 16:12:16;;;;;;;17.93;6.37;;;24.00;27.30;;;;;;5053259;28;20421;-84
2022/03/25 16:14:44;;;;;;;21.00;7.20;;;23.90;28.20;;;;;;5053254;28;20509;-84
2022/03/25 16:17:12;;;;;;;21.07;7.43;;;23.50;27.50;;;;;;5053251;28;20468;-84
2022/03/25 16:19:42;;;;;;;21.50;7.07;;;23.40;28.10;;;;;;5053686;28;20473;-84
2022/03/25 16:22:10;;;;;;;21.83;9.20;;;22.90;28.30;;;;;;5053570;28;20530;-85
2022/03/25 16:24:42;;;;;;;27.07;9.23;;;22.60;28.40;;;;;;5053547;28;20553;-85
2022/03/25 16:27:10;;;;;;;26.47;9.63;;;21.90;29.30;;;;;;5053077;28;20474;-84
2022/03/25 16:29:38;;;;;;;27.93;10.67;;;22.10;29.90;;;;;;5052819;28;20459;-84
2022/03/25 16:32:08;;;;;;;23.07;9.47;;;22.10;29.40;;;;;;5052891;28;20489;-85
2022/03/25 16:34:36;;;;;;;26.07;10.87;;;22.30;28.80;;;;;;5053329;28;20520;-85
2022/03/25 16:37:05;;;;;;;28.10;10.23;;;21.90;28.60;;;;;;5057159;28;20569;-85
2022/03/25 16:39:33;;;;;;;21.83;9.57;;;21.40;28.50;;;;;;5052094;28;20505;-84
2022/03/25 16:42:03;;;;;;;28.23;10.10;;;21.20;28.80;;;;;;5061970;28;20478;-85
2022/03/25 16:44:31;;;;;;;21.60;9.70;;;21.10;28.50;;;;;;5070194;28;20472;-84
2022/03/25 16:47:01;;;;;;;27.40;11.13;;;21.00;28.40;;;;;;5067621;28;20467;-85
2022/03/25 16:49:37;;;;;;;22.57;11.67;;;21.00;29.10;;;;;;5057442;28;20466;-85
2022/03/25 16:52:06;;;;;;;24.13;12.10;;;21.00;28.70;;;;;;5061358;28;20466;-85
2022/03/25 16:54:34;;;;;;;32.80;14.47;;;20.90;28.50;;;;;;5075108;28;20437;-84
2022/03/25 16:57:04;;;;;;;28.33;14.30;;;20.80;28.10;;;;;;5071493;28;20481;-83
2022/03/25 16:59:32;;;;;;;26.90;14.50;;;20.40;28.10;;;;;;5062513;28;20490;-83
2022/03/25 17:02:15;;;;;;;32.17;16.03;;;19.70;28.60;;;;;;5064481;28;20982;-83
2022/03/25 17:04:43;;;;;;;29.00;13.73;;;19.90;29.00;;;;;;5063506;28;20518;-83
2022/03/25 17:07:11;;;;;;;29.47;14.03;;;20.00;29.00;;;;;;5062316;28;20497;-83
2022/03/25 17:09:40;;;;;;;33.63;14.43;;;19.90;28.90;;;;;;5064238;28;20485;-83
2022/03/25 17:12:10;;;;;;;37.00;13.80;;;19.60;29.10;;;;;;5063276;28;20473;-83
2022/03/25 17:14:38;;;;;;;26.10;13.90;;;19.50;29.40;;;;;;5064292;28;20477;-83
2022/03/25 17:17:09;;;;;;;35.60;15.10;;;19.50;29.00;;;;;;5063756;28;20466;-83
2022/03/25 17:19:38;;;;;;;43.10;21.13;;;19.30;29.40;;;;;;5062700;28;20520;-83
2022/03/25 17:22:06;;;;;;;64.43;25.67;;;19.50;29.50;;;;;;5060688;28;20533;-83
2022/03/25 17:24:35;;;;;;;35.43;16.93;;;19.70;29.40;;;;;;5064034;28;20450;-83
2022/03/25 17:27:03;;;;;;;27.77;13.87;;;19.70;29.00;;;;;;5063637;28;20468;-82
2022/03/25 17:29:33;;;;;;;32.50;12.77;;;19.30;29.00;;;;;;5070549;28;20439;-83
2022/03/25 17:32:01;;;;;;;22.90;10.40;;;19.20;28.90;;;;;;5073571;28;20546;-83
2022/03/25 17:34:29;;;;;;;28.63;11.73;;;18.40;29.30;;;;;;5075760;28;20410;-83
2022/03/25 17:36:57;;;;;;;38.07;12.47;;;18.40;29.40;;;;;;5075180;28;20447;-83
2022/03/25 17:39:27;;;;;;;30.90;12.63;;;18.50;29.70;;;;;;5074328;28;20466;-83
2022/03/25 17:41:55;;;;;;;30.90;12.40;;;18.40;29.60;;;;;;5074535;28;20454;-82
2022/03/25 17:44:23;;;;;;;44.60;19.50;;;18.40;28.90;;;;;;5073362;28;20476;-83
2022/03/25 17:46:53;;;;;;;31.10;15.40;;;18.30;29.00;;;;;;5073486;28;20459;-83
2022/03/25 17:49:22;;;;;;;200.67;127.47;;;18.20;28.80;;;;;;5073886;28;20429;-84
2022/03/25 17:51:50;;;;;;;50.63;25.80;;;18.40;28.90;;;;;;5074718;28;20443;-83
2022/03/25 17:54:18;;;;;;;35.30;15.93;;;18.30;28.70;;;;;;5074462;28;20434;-83
2022/03/25 17:56:47;;;;;;;28.20;13.50;;;18.10;28.20;;;;;;5074071;28;20489;-82
2022/03/25 17:59:15;;;;;;;29.17;13.00;;;17.90;28.30;;;;;;5074620;28;20510;-83
2022/03/25 18:01:43;;;;;;;33.37;12.70;;;17.30;29.00;;;;;;5074454;28;20525;-83
2022/03/25 18:04:12;;;;;;;28.80;11.33;;;16.80;29.30;;;;;;5074153;28;20442;-82
2022/03/25 18:06:40;;;;;;;31.00;11.90;;;16.60;29.50;;;;;;5074085;28;20524;-85
2022/03/25 18:09:08;;;;;;;26.77;11.77;;;16.80;29.70;;;;;;5074014;28;20446;-83
2022/03/25 18:11:36;;;;;;;32.80;11.50;;;16.80;30.30;;;;;;5074216;28;20462;-83
2022/03/25 18:14:05;;;;;;;24.87;10.50;;;16.90;29.50;;;;;;5057040;28;20440;-83
2022/03/25 18:16:33;;;;;;;29.53;14.63;;;16.50;29.50;;;;;;5074264;28;20451;-83
2022/03/25 18:19:01;;;;;;;27.40;14.10;;;16.60;30.60;;;;;;5074164;28;20434;-81
2022/03/25 18:21:31;;;;;;;34.77;12.77;;;16.20;30.10;;;;;;5067913;28;20496;-84
2022/03/25 18:24:03;;;;;;;24.97;10.67;;;16.00;30.70;;;;;;5063646;28;20434;-84
2022/03/25 18:26:32;;;;;;;25.30;11.80;;;16.00;31.40;;;;;;5063732;28;20530;-84
2022/03/25 18:29:00;;;;;;;24.33;11.77;;;15.60;30.70;;;;;;5063423;28;20442;-84
2022/03/25 18:31:29;;;;;;;26.60;10.63;;;15.60;31.30;;;;;;5062837;28;20545;-85
2022/03/25 18:33:57;;;;;;;29.40;13.40;;;15.30;30.60;;;;;;5063832;28;20464;-83
2022/03/25 18:36:25;;;;;;;25.83;11.37;;;15.50;31.10;;;;;;5064731;28;20462;-84
2022/03/25 18:38:55;;;;;;;26.67;11.27;;;15.70;30.90;;;;;;5064056;28;20447;-83
2022/03/25 18:41:23;;;;;;;25.73;10.20;;;16.00;30.10;;;;;;5064594;28;20501;-83
2022/03/25 18:43:51;;;;;;;33.00;12.20;;;15.70;29.80;;;;;;5063735;28;20505;-83
2022/03/25 18:46:19;;;;;;;29.73;11.40;;;16.00;29.70;;;;;;5063926;28;20497;-83
2022/03/25 18:48:48;;;;;;;26.37;11.73;;;15.90;29.80;;;;;;5065233;28;20447;-83
2022/03/25 18:51:16;;;;;;;23.63;11.40;;;15.90;29.60;;;;;;5059309;28;20466;-83
2022/03/25 18:53:44;;;;;;;26.50;12.20;;;15.80;30.00;;;;;;5044349;28;20455;-83
2022/03/25 18:56:14;;;;;;;25.50;11.80;;;15.80;29.90;;;;;;5042412;28;20472;-83
2022/03/25 18:58:42;;;;;;;25.77;10.60;;;15.80;29.80;;;;;;5061700;28;20458;-83
2022/03/25 19:01:10;;;;;;;31.07;12.57;;;15.50;30.50;;;;;;5073156;28;20516;-83
2022/03/25 19:03:39;;;;;;;26.17;12.90;;;15.40;31.30;;;;;;5074175;28;20469;-83
2022/03/25 19:06:08;;;;;;;32.47;14.27;;;15.30;30.90;;;;;;5066783;28;20464;-83
2022/03/25 19:08:37;;;;;;;28.00;12.47;;;15.20;31.30;;;;;;5061362;28;20451;-83
2022/03/25 19:11:05;;;;;;;27.40;13.00;;;15.30;31.40;;;;;;5061083;28;20469;-83
2022/03/25 19:13:34;;;;;;;32.03;13.77;;;15.30;30.80;;;;;;5061817;28;20439;-84
2022/03/25 19:16:03;;;;;;;24.80;12.07;;;15.50;31.20;;;;;;5060650;28;20467;-83
2022/03/25 19:18:33;;;;;;;35.87;14.30;;;15.40;31.10;;;;;;5060575;28;20447;-83
2022/03/25 19:21:01;;;;;;;27.80;13.80;;;15.50;31.20;;;;;;5061688;28;20474;-84
2022/03/25 19:23:30;;;;;;;34.13;16.27;;;15.70;31.00;;;;;;5062548;28;20445;-84
2022/03/25 19:25:58;;;;;;;34.77;15.77;;;15.80;30.90;;;;;;5052100;28;20443;-84
2022/03/25 19:28:27;;;;;;;28.93;16.90;;;15.70;30.30;;;;;;5042003;28;20477;-84
2022/03/25 19:30:56;;;;;;;38.13;17.80;;;15.90;31.10;;;;;;5052339;28;20449;-84
2022/03/25 19:33:24;;;;;;;37.53;18.67;;;15.80;30.50;;;;;;5058749;28;20438;-84
2022/03/25 19:35:53;;;;;;;37.30;18.43;;;15.70;30.90;;;;;;5059183;28;20438;-83
2022/03/25 19:38:21;;;;;;;44.67;19.57;;;15.70;30.90;;;;;;5058453;28;20473;-83
2022/03/25 19:40:49;;;;;;;44.20;18.00;;;15.40;31.30;;;;;;5057556;28;20608;-83
2022/03/25 19:43:17;;;;;;;40.20;18.07;;;15.20;31.40;;;;;;5059090;28;20443;-83
2022/03/25 19:45:47;;;;;;;41.70;19.73;;;15.10;33.10;;;;;;5061500;28;20462;-83
2022/03/25 19:48:21;;;;;;;44.13;19.07;;;15.00;33.10;;;;;;5059133;28;20470;-82
2022/03/25 19:50:49;;;;;;;44.20;20.60;;;14.80;33.20;;;;;;5057573;28;20474;-82
2022/03/25 19:53:17;;;;;;;42.73;19.90;;;14.60;33.90;;;;;;5057621;28;20454;-82
2022/03/25 19:55:48;;;;;;;38.90;19.37;;;14.30;34.10;;;;;;5078301;28;20449;-83
2022/03/25 19:58:17;;;;;;;44.53;19.77;;;14.30;34.70;;;;;;5077771;28;20492;-83
2022/03/25 20:00:45;;;;;;;42.00;19.87;;;14.30;35.20;;;;;;5078519;28;20496;-84
2022/03/25 20:03:13;;;;;;;37.57;18.33;;;14.30;34.40;;;;;;5078946;28;20473;-83
2022/03/25 20:05:44;;;;;;;40.90;20.13;;;14.50;34.60;;;;;;5063378;28;20443;-83